Terminal Aerodrome Forecast
Issued by NWS

Home | Current Version | Previous Version | Text Only | Print | Product List | Glossary On
Versions: 1 2 3 4 5 6 7 8 9 10 11 12 13 14 15 16 17 18 19 20 21 22 23 24 25 26 27 28 29 30 31
000
FTUS44 KMOB 282300 RRA
TAFBFM
TAF
KBFM 282351Z 0100/0124 19005KT P6SM SKC
     FM010200 05009KT 4SM BR OVC020
     FM010400 07007KT 5SM BR OVC005=

USA.gov is the U.S. government's official web portal to all federal, state and local government web resources and services.